• Join FlightAware (Why Join?)
  • Login
  • US Flag 
06:53AM EDT


 

Airport Tracker/Info


-or-


 

Live Flight TrackerFlight Track Log ✈ QXE2418 ✈ 20-May-2013 ✈ KBOI - KPDX

Flight Track Log - Related Links

Times and Time Zones

All times are in EDT time to prevent confusion due to time zone crossing. See the QXE2418 flight status page for this flight to view local times or setup timezone preferences in your user account.

Time Position Orientation Groundspeed Altitude Reporting Facility
EDT Latitude Longitude Course Direction KTS MPH feet Rate Location/Type
01:13PM 43.8251 -117.0588 295° West  Level FlightAware Approximate
01:14PM 43.8587 -117.1592 295° West  Level FlightAware Approximate
01:15PM 43.8917 -117.2599 294° West  Level FlightAware Approximate
01:16PM 43.9265 -117.3592 299° West  Level Estimated
01:17PM 43.9883 -117.4286 321° Northwest  Level FlightAware Approximate
01:18PM 44.0502 -117.4981 321° Northwest  Level FlightAware Approximate
01:19PM 44.0835 -117.5986 298° West  Level Estimated
01:20PM 44.1220 -117.6955 299° West  Level FlightAware Approximate
01:21PM 44.1604 -117.7926 299° West  Level FlightAware Approximate
01:22PM 44.1986 -117.8897 299° West  Level FlightAware Approximate
01:23PM 44.2368 -117.9871 299° West  Level FlightAware Approximate
01:24PM 44.2750 -118.0845 299° West  Level FlightAware Approximate
01:25PM 44.3130 -118.1821 299° West  Level FlightAware Approximate
01:26PM 44.3510 -118.2797 299° West  Level FlightAware Approximate
01:27PM 44.3888 -118.3776 298° West  Level FlightAware Approximate
01:28PM 44.4266 -118.4755 298° West  Level FlightAware Approximate
01:29PM 44.4643 -118.5736 298° West  Level FlightAware Approximate
01:30PM 44.4953 -118.6762 298° West  Level Estimated
01:31PM 44.5331 -118.7744 298° West  Level FlightAware Approximate
01:32PM 44.5708 -118.8726 298° West  Level FlightAware Approximate
01:33PM 44.6083 -118.9710 298° West  Level FlightAware Approximate
01:34PM 44.6459 -119.0695 298° West  Level FlightAware Approximate
01:35PM 44.6804 -119.1605 298° West  Level FlightAware Approximate
01:36PM 44.7148 -119.2516 298° West  Level FlightAware Approximate
01:37PM 44.7492 -119.3428 298° West  Level FlightAware Approximate
01:38PM 44.7835 -119.4341 298° West  Level FlightAware Approximate
01:39PM 44.8229 -119.5396 298° West  Level FlightAware Approximate
01:40PM 44.8623 -119.6451 298° West  Level FlightAware Approximate
01:41PM 44.9015 -119.7508 298° West  Level FlightAware Approximate
01:42PM 44.9407 -119.8567 298° West  Level FlightAware Approximate
01:43PM 44.9798 -119.9627 298° West  Level FlightAware Approximate
01:44PM 45.0187 -120.0688 297° West  Level FlightAware Approximate
01:45PM 45.0576 -120.1751 297° West  Level FlightAware Approximate
01:46PM 45.0961 -120.2819 297° West  Level FlightAware Approximate
01:47PM 45.1344 -120.3887 297° West  Level FlightAware Approximate
01:48PM 45.1726 -120.4957 297° West  Level FlightAware Approximate
01:49PM 45.2107 -120.6028 297° West  Level FlightAware Approximate
01:50PM 45.2498 -120.7093 299° West  Level FlightAware Approximate
01:51PM 45.2904 -120.8147 299° West  Level FlightAware Approximate
01:52PM 45.2976 -120.9366 291° West  Level FlightAware Approximate
01:53PM 45.3275 -121.0486 291° West  Level FlightAware Approximate
01:54PM 45.3581 -121.1602 293° West  Level FlightAware Approximate
01:55PM 45.3913 -121.2705 293° West  Level FlightAware Approximate
01:56PM 45.4244 -121.3808 293° West  Level FlightAware Approximate
01:57PM 45.4552 -121.4924 286° West  Level FlightAware Approximate
01:58PM 45.4733 -121.6095 279° West  Level FlightAware Approximate
01:59PM 45.4833 -121.7285 270° West  Level FlightAware Approximate
02:00PM 45.5000 -121.8459 270° West  Level FlightAware Approximate
02:01PM 45.5107 -121.9643 283° West  Level FlightAware Approximate
02:02PM 45.5242 -122.0828 277° West  Level FlightAware Approximate
02:03PM 45.5390 -122.2004 295° West  Level FlightAware Approximate
02:04PM 45.5500 -122.3172 270° West  Level FlightAware Approximate
02:05PM 45.5667 -122.4251 270° West  Level FlightAware Approximate
02:06PM 45.5772 -122.5402 282° West  Level FlightAware Approximate
02:07PM 45.5833 -122.5833 282° West  Level FlightAware Approximate
02:08PM 45.5887 -122.5969 282° West  Level Estimated
02:09PM 45.5887 -122.5969 282° West  Level Estimated
02:10PM 45.5887 -122.5969 282° West  Level Estimated
02:11PM 45.5887 -122.5969 282° West  Level Estimated
02:12PM 45.5887 -122.5969 282° West  Level Estimated
02:13PM 45.5887 -122.5969 282° West  Level Estimated
02:14PM 45.5887 -122.5969 282° West  Level Estimated
02:15PM 45.5887 -122.5969 282° West  Level Estimated
02:16PM 45.5887 -122.5969 282° West  Level Estimated
02:17PM 45.5887 -122.5969 282° West  Level Estimated